Time;durP1;ratioP1;P1;durP2;ratioP2;P2;SDS_P1;SDS_P2;PMS_P1;PMS_P2;Temp;Humidity;BMP_temperature;BMP_pressure;BME280_temperature;BME280_humidity;BME280_pressure;Samples;Min_cycle;Max_cycle;Signal;HPM_P1;HPM_P2
2021/10/09 00:00:01;;;;;;;42.92;24.38;;;;;;;7.79;100.00;103067.34;4948402;28;20053;-69
2021/10/09 00:02:29;;;;;;;51.92;27.52;;;;;;;7.83;100.00;103070.94;4950762;28;20102;-69
2021/10/09 00:04:57;;;;;;;45.80;24.70;;;;;;;7.86;100.00;103065.66;4951446;28;20183;-69
2021/10/09 00:07:25;;;;;;;46.67;27.10;;;;;;;7.89;100.00;103057.75;4947000;28;20054;-69
2021/10/09 00:09:58;;;;;;;46.40;26.23;;;;;;;7.90;100.00;103058.63;4951350;28;20134;-69
2021/10/09 00:12:26;;;;;;;49.65;25.42;;;;;;;7.92;100.00;103059.56;4946895;28;20145;-69
2021/10/09 00:14:55;;;;;;;49.42;26.80;;;;;;;7.96;100.00;103058.72;4951352;28;20059;-69
2021/10/09 00:17:25;;;;;;;48.20;27.45;;;;;;;7.96;100.00;103064.94;4945479;28;20061;-69
2021/10/09 00:19:53;;;;;;;50.63;27.95;;;;;;;7.95;100.00;103059.59;4950558;28;20058;-69
2021/10/09 00:22:22;;;;;;;48.58;28.00;;;;;;;7.97;100.00;103061.41;4947726;28;20050;-69
2021/10/09 00:24:51;;;;;;;55.85;28.98;;;;;;;7.98;100.00;103063.19;4948647;28;20137;-69
2021/10/09 00:27:19;;;;;;;49.92;29.17;;;;;;;8.01;100.00;103065.88;4949526;28;20905;-69
2021/10/09 00:29:47;;;;;;;52.65;27.63;;;;;;;8.02;100.00;103067.69;4947388;28;20097;-69
2021/10/09 00:32:15;;;;;;;55.35;29.30;;;;;;;8.04;100.00;103068.59;4951111;28;20503;-69
2021/10/09 00:34:44;;;;;;;54.72;29.83;;;;;;;8.06;100.00;103067.72;4942477;28;20665;-69
2021/10/09 00:37:12;;;;;;;57.85;30.40;;;;;;;8.08;100.00;103065.97;4950228;28;20491;-69
2021/10/09 00:39:40;;;;;;;54.42;29.92;;;;;;;8.11;100.00;103060.72;4946531;28;21260;-69
2021/10/09 00:42:09;;;;;;;56.50;30.85;;;;;;;8.12;100.00;103059.81;4946635;28;20058;-72
2021/10/09 00:44:38;;;;;;;57.28;30.50;;;;;;;8.10;100.00;103058.91;4952535;28;20173;-69
2021/10/09 00:47:06;;;;;;;53.55;28.17;;;;;;;8.06;100.00;103060.63;4950581;28;20404;-69
2021/10/09 00:49:59;;;;;;;53.88;27.52;;;;;;;8.03;100.00;103055.28;4952505;28;20640;-69
2021/10/09 00:52:28;;;;;;;47.92;28.10;;;;;;;8.01;100.00;103070.31;4942289;28;21208;-69
2021/10/09 00:54:57;;;;;;;54.08;28.38;;;;;;;7.96;100.00;103061.38;4950972;28;20058;-69
2021/10/09 00:57:28;;;;;;;53.42;30.85;;;;;;;8.00;100.00;103063.19;4949365;28;20100;-69
2021/10/09 00:59:59;;;;;;;51.22;28.60;;;;;;;7.92;100.00;103056.91;4943952;28;20125;-69
2021/10/09 01:02:27;;;;;;;53.45;30.42;;;;;;;7.93;100.00;103056.91;4949127;28;20538;-69
2021/10/09 01:04:58;;;;;;;53.70;29.38;;;;;;;7.91;100.00;103063.09;4944800;28;20064;-70
2021/10/09 01:07:27;;;;;;;48.75;27.13;;;;;;;7.90;100.00;103059.53;4947898;28;20834;-69
2021/10/09 01:09:55;;;;;;;57.30;29.08;;;;;;;7.91;100.00;103055.09;4949273;28;20141;-69
2021/10/09 01:12:23;;;;;;;55.65;30.08;;;;;;;7.93;100.00;103056.91;4946148;28;20355;-69
2021/10/09 01:14:52;;;;;;;58.15;30.15;;;;;;;7.93;100.00;103056.91;4944623;28;20646;-69
2021/10/09 01:17:20;;;;;;;55.03;28.88;;;;;;;7.91;100.00;103045.34;4949335;28;20059;-69
2021/10/09 01:19:49;;;;;;;53.50;30.33;;;;;;;7.95;100.00;103046.28;4952869;28;20781;-69
2021/10/09 01:22:19;;;;;;;53.38;28.58;;;;;;;7.86;100.00;103042.63;4943645;28;20066;-69
2021/10/09 01:24:48;;;;;;;54.53;29.88;;;;;;;7.88;100.00;103044.44;4950876;28;20505;-69
2021/10/09 01:27:17;;;;;;;53.70;29.85;;;;;;;7.89;100.00;103040.91;4948279;28;20085;-72
2021/10/09 01:29:45;;;;;;;53.80;29.83;;;;;;;7.91;100.00;103040.03;4942708;28;20062;-72
2021/10/09 01:32:13;;;;;;;55.10;29.85;;;;;;;7.92;100.00;103040.97;4946006;28;20137;-72
2021/10/09 01:35:06;;;;;;;55.22;29.48;;;;;;;7.94;100.00;103039.22;4942983;28;20081;-70
2021/10/09 01:37:41;;;;;;;57.13;29.90;;;;;;;7.96;100.00;103045.44;4950279;28;20062;-69
2021/10/09 01:40:10;;;;;;;58.53;30.77;;;;;;;8.00;100.00;103033.94;4946906;28;20173;-69
2021/10/09 01:42:38;;;;;;;52.47;29.58;;;;;;;7.91;100.00;103036.50;4947936;28;20407;-69
2021/10/09 01:45:08;;;;;;;59.63;31.63;;;;;;;7.92;100.00;103036.53;4949006;28;20081;-69
2021/10/09 01:47:39;;;;;;;56.85;29.05;;;;;;;7.83;100.00;103039.03;4944259;28;20094;-72
2021/10/09 01:50:08;;;;;;;56.58;29.75;;;;;;;7.73;100.00;103030.06;4949428;28;20054;-72
2021/10/09 01:53:05;;;;;;;49.20;26.98;;;;;;;7.64;100.00;103033.47;4943625;28;20065;-69
2021/10/09 01:55:33;;;;;;;56.45;30.27;;;;;;;7.59;100.00;103026.28;4944912;28;20491;-69
2021/10/09 01:58:00;;;;;;;55.38;28.85;;;;;;;7.53;100.00;103031.53;4946986;28;20057;-69
2021/10/09 02:00:28;;;;;;;49.50;27.50;;;;;;;7.46;100.00;103026.09;4950032;28;20081;-69
2021/10/09 02:03:01;;;;;;;53.65;28.05;;;;;;;7.51;100.00;103030.56;4947281;28;20559;-69
2021/10/09 02:05:29;;;;;;;52.28;28.73;;;;;;;7.42;100.00;103026.94;4945561;28;20057;-69
2021/10/09 02:07:57;;;;;;;51.78;28.88;;;;;;;7.39;100.00;103025.97;4947011;28;20561;-69
2021/10/09 02:10:27;;;;;;;51.60;26.02;;;;;;;7.34;100.00;103020.59;4943804;28;20055;-69
2021/10/09 02:12:55;;;;;;;52.40;28.02;;;;;;;7.31;100.00;103022.31;4951709;28;20054;-71
2021/10/09 02:15:28;;;;;;;53.78;28.40;;;;;;;7.26;100.00;103017.81;4943114;28;20059;-72
2021/10/09 02:26:24;;;;;;;50.58;27.63;;;;;;;7.11;100.00;103023.75;4951418;28;20503;-72
2021/10/09 02:28:53;;;;;;;46.90;26.63;;;;;;;7.09;100.00;103020.19;4947700;28;20141;-72
2021/10/09 02:31:21;;;;;;;50.85;28.40;;;;;;;7.07;100.00;103015.72;4948700;28;20057;-69
2021/10/09 02:33:49;;;;;;;52.95;29.35;;;;;;;7.06;100.00;103022.78;4945913;28;20163;-69
2021/10/09 02:36:17;;;;;;;55.08;29.83;;;;;;;7.01;100.00;103024.44;4947171;28;20051;-69
2021/10/09 02:38:45;;;;;;;49.45;25.58;;;;;;;6.99;100.00;103023.53;4943588;28;20532;-69
2021/10/09 02:41:13;;;;;;;54.88;27.52;;;;;;;6.97;100.00;103021.75;4949027;28;20452;-69
2021/10/09 02:44:07;;;;;;;54.22;28.95;;;;;;;6.97;100.00;103019.09;4948874;28;20062;-70
2021/10/09 02:46:36;;;;;;;49.78;27.55;;;;;;;6.91;100.00;103018.13;4943894;28;20066;-69
2021/10/09 02:49:04;;;;;;;53.80;28.00;;;;;;;6.91;100.00;103020.75;4944280;28;20069;-69
2021/10/09 02:51:56;;;;;;;53.55;27.02;;;;;;;6.99;100.00;103023.53;4944415;28;20503;-69
2021/10/09 02:54:24;;;;;;;60.33;29.17;;;;;;;7.06;100.00;103017.47;4946043;28;20513;-69
2021/10/09 02:56:52;;;;;;;58.25;30.40;;;;;;;7.11;100.00;103023.75;4951650;28;20555;-69
2021/10/09 02:59:22;;;;;;;56.88;30.33;;;;;;;7.15;100.00;103014.09;4947559;28;20122;-71
2021/10/09 03:01:50;;;;;;;60.35;29.92;;;;;;;7.22;100.00;103013.31;4944208;28;20161;-71
2021/10/09 03:04:20;;;;;;;67.03;33.40;;;;;;;7.33;100.00;103012.59;4952512;28;20059;-72
2021/10/09 03:06:49;;;;;;;63.92;32.55;;;;;;;7.26;100.00;103014.25;4949676;28;20446;-71
2021/10/09 03:09:17;;;;;;;62.92;31.70;;;;;;;7.33;100.00;103012.59;4949736;28;20046;-71
2021/10/09 03:11:45;;;;;;;65.78;32.13;;;;;;;7.41;100.00;103009.19;4952937;28;20062;-72
2021/10/09 03:14:13;;;;;;;64.70;32.38;;;;;;;7.44;100.00;103005.69;4947089;28;20271;-72
2021/10/09 03:16:42;;;;;;;63.67;33.40;;;;;;;7.44;100.00;103013.66;4953259;28;20086;-71
2021/10/09 03:19:10;;;;;;;59.30;33.53;;;;;;;7.43;100.00;103010.09;4952081;28;20456;-71
2021/10/09 03:21:38;;;;;;;65.25;32.05;;;;;;;7.44;100.00;103003.94;4948223;28;20049;-71
2021/10/09 03:24:06;;;;;;;69.78;32.53;;;;;;;7.39;100.00;103005.63;4949396;28;20043;-72
2021/10/09 03:26:39;;;;;;;65.25;31.63;;;;;;;7.42;100.00;103011.00;4944419;28;20058;-71
2021/10/09 03:29:06;;;;;;;64.65;32.90;;;;;;;7.47;100.00;102998.69;4953157;28;20050;-71
2021/10/09 03:31:34;;;;;;;67.25;33.80;;;;;;;7.46;100.00;103010.16;4947225;28;20053;-71
2021/10/09 03:34:04;;;;;;;66.72;31.98;;;;;;;7.45;100.00;103005.69;4950325;28;20080;-71
2021/10/09 03:36:56;;;;;;;62.30;30.73;;;;;;;7.35;100.00;103003.78;4949051;28;20522;-71
2021/10/09 03:39:24;;;;;;;61.28;31.73;;;;;;;7.39;100.00;103007.38;4947216;28;20515;-71
2021/10/09 03:41:56;;;;;;;56.42;30.63;;;;;;;7.35;100.00;103010.84;4948445;28;20514;-69
2021/10/09 03:44:25;;;;;;;63.15;31.63;;;;;;;7.36;100.00;103007.34;4947317;28;20051;-69
2021/10/09 03:46:59;;;;;;;60.90;31.17;;;;;;;7.38;100.00;102998.53;4949202;28;20059;-69
2021/10/09 03:49:39;;;;;;;63.97;32.42;;;;;;;7.38;100.00;103009.16;4946183;28;20177;-69
2021/10/09 03:55:09;;;;;;;70.30;32.40;;;;;;;7.40;100.00;103010.06;4879383;29;20079;-70
2021/10/09 03:57:38;;;;;;;66.03;31.25;;;;;;;7.38;100.00;103008.25;4885682;29;20119;-70
2021/10/09 04:00:08;;;;;;;62.35;30.45;;;;;;;7.34;100.00;103004.66;4915187;28;20054;-70
2021/10/09 04:02:36;;;;;;;64.97;31.83;;;;;;;7.32;100.00;103006.41;4949041;28;20117;-70
2021/10/09 04:05:06;;;;;;;62.35;31.85;;;;;;;7.25;100.00;103001.84;4950404;28;20433;-70
2021/10/09 04:07:34;;;;;;;62.92;31.25;;;;;;;7.17;100.00;103000.81;4948877;28;20596;-71
2021/10/09 04:10:03;;;;;;;67.22;31.10;;;;;;;7.11;100.00;103009.59;4951532;28;20142;-68
2021/10/09 04:12:30;;;;;;;60.42;29.40;;;;;;;7.05;100.00;103001.53;4950054;28;20046;-68
2021/10/09 04:14:58;;;;;;;60.60;30.15;;;;;;;6.99;100.00;103006.72;4944746;28;20802;-68
2021/10/09 04:17:26;;;;;;;58.70;29.15;;;;;;;6.94;100.00;103009.28;4946081;28;20141;-68
2021/10/09 04:19:55;;;;;;;68.45;32.03;;;;;;;6.86;100.00;103011.81;4944958;28;20136;-68
2021/10/09 04:22:24;;;;;;;61.72;29.48;;;;;;;6.84;100.00;103010.88;4951393;28;22402;-68
2021/10/09 04:24:53;;;;;;;64.15;29.88;;;;;;;6.81;100.00;103012.59;4944985;28;20475;-68
2021/10/09 04:27:22;;;;;;;65.40;30.77;;;;;;;6.78;100.00;103010.78;4952091;28;20243;-69
2021/10/09 04:29:50;;;;;;;80.55;38.70;;;;;;;6.71;100.00;103015.09;4949209;28;20058;-68
2021/10/09 04:32:21;;;;;;;71.78;35.75;;;;;;;6.67;100.00;103015.88;4948121;28;20051;-69
2021/10/09 04:34:52;;;;;;;62.13;30.23;;;;;;;6.66;100.00;103011.44;4946946;28;20426;-68
2021/10/09 04:37:45;;;;;;;;;;;;;;;6.64;100.00;103007.88;4944354;28;22059;-68
2021/10/09 04:40:16;;;;;;;57.67;27.33;;;;;;;6.73;100.00;103007.16;4948966;28;19930;-68
2021/10/09 04:42:44;;;;;;;67.85;30.75;;;;;;;6.78;100.00;103012.56;4947919;28;20125;-67
2021/10/09 04:45:12;;;;;;;58.55;29.08;;;;;;;6.80;100.00;103013.47;4948087;28;20449;-69
2021/10/09 04:47:40;;;;;;;60.83;30.08;;;;;;;6.86;100.00;103010.91;4947253;28;20121;-69
2021/10/09 04:50:08;;;;;;;68.25;31.10;;;;;;;6.88;100.00;103002.13;4944399;28;20137;-70
2021/10/09 04:52:36;;;;;;;72.00;33.00;;;;;;;6.92;100.00;103008.38;4944099;28;20138;-70
2021/10/09 04:55:07;;;;;;;62.83;29.42;;;;;;;6.91;100.00;102994.22;4947475;28;20054;-71
2021/10/09 04:57:35;;;;;;;71.35;32.00;;;;;;;6.97;100.00;102996.09;4950644;28;20113;-71
2021/10/09 05:00:04;;;;;;;64.53;31.20;;;;;;;6.97;100.00;103000.50;4945765;28;20097;-70
2021/10/09 05:02:31;;;;;;;71.13;34.08;;;;;;;6.96;100.00;102996.06;4949163;28;20594;-70
2021/10/09 05:05:00;;;;;;;67.53;31.92;;;;;;;6.94;100.00;102996.03;4948174;28;20112;-70
2021/10/09 05:07:28;;;;;;;64.75;31.30;;;;;;;6.92;100.00;102990.69;4945146;28;20557;-71
2021/10/09 05:09:56;;;;;;;62.97;31.60;;;;;;;6.91;100.00;102983.59;4948493;28;20613;-71
2021/10/09 05:12:25;;;;;;;62.60;29.63;;;;;;;6.88;100.00;102995.94;4945570;28;20580;-71
2021/10/09 05:14:53;;;;;;;68.78;32.20;;;;;;;6.89;100.00;102997.69;4951061;28;20146;-72
2021/10/09 05:17:21;;;;;;;64.28;32.25;;;;;;;6.77;100.00;103000.16;4948488;28;20069;-71
2021/10/09 05:19:49;;;;;;;71.13;33.88;;;;;;;6.71;100.00;102995.63;4945758;28;20248;-70
2021/10/09 05:22:17;;;;;;;70.72;32.83;;;;;;;6.64;100.00;102993.69;4947452;28;20054;-70
2021/10/09 05:24:49;;;;;;;63.95;30.60;;;;;;;6.60;100.00;102995.41;4945602;28;20074;-69
2021/10/09 05:27:17;;;;;;;58.90;30.42;;;;;;;6.59;100.00;102998.94;4949301;28;20079;-69
2021/10/09 05:29:47;;;;;;;67.70;32.17;;;;;;;6.63;100.00;103005.19;4943739;28;20295;-70
2021/10/09 05:32:21;;;;;;;60.58;31.02;;;;;;;6.69;100.00;103002.63;4948982;28;20125;-69
2021/10/09 05:34:49;;;;;;;71.50;33.78;;;;;;;6.68;100.00;103008.84;4946381;28;20051;-71
2021/10/09 05:37:17;;;;;;;67.45;31.48;;;;;;;6.68;100.00;102999.09;4942728;28;20134;-70
2021/10/09 05:39:45;;;;;;;64.35;31.83;;;;;;;6.69;100.00;103002.63;4942115;28;20141;-71
2021/10/09 05:42:13;;;;;;;74.57;35.95;;;;;;;6.78;100.00;103010.78;4945497;28;20255;-70
2021/10/09 05:44:40;;;;;;;84.40;34.08;;;;;;;6.85;100.00;103007.38;4947595;28;20534;-70
2021/10/09 05:47:11;;;;;;;69.00;32.38;;;;;;;6.92;100.00;103013.69;4944225;28;20051;-70
2021/10/09 05:50:06;;;;;;;71.60;34.28;;;;;;;6.98;100.00;103003.19;4949352;28;20446;-70
2021/10/09 05:52:39;;;;;;;78.75;33.35;;;;;;;7.05;100.00;103001.53;4944309;28;20086;-70
2021/10/09 05:55:13;;;;;;;75.75;34.00;;;;;;;7.05;100.00;103005.06;4944856;28;20054;-71
2021/10/09 05:57:46;;;;;;;;;;;;;;;7.11;100.00;103010.47;4948854;28;20142;-68
2021/10/09 06:31:24;;;;;;;84.50;36.40;;;;;;;7.37;100.00;103036.59;4943115;28;20418;-69
2021/10/09 06:48:45;;;;;;;78.35;37.05;;;;;;;7.57;100.00;103038.66;4866160;29;20630;-68
2021/10/09 06:59:35;;;;;;;83.47;35.42;;;;;;;7.79;100.00;103067.34;4949876;28;20066;-68
2021/10/09 07:02:04;;;;;;;87.68;39.08;;;;;;;7.88;100.00;103060.38;4944476;28;20519;-69
2021/10/09 07:04:32;;;;;;;82.07;37.85;;;;;;;7.91;100.00;103066.63;4951532;28;21010;-69
2021/10/09 07:07:03;;;;;;;87.53;38.28;;;;;;;7.98;100.00;103062.28;4943760;28;20384;-69
2021/10/09 07:09:33;;;;;;;88.50;38.90;;;;;;;8.05;100.00;103066.81;4948124;28;20057;-70
2021/10/09 07:12:01;;;;;;;76.57;37.08;;;;;;;8.11;100.00;103069.56;4949473;28;20047;-69
2021/10/09 07:14:29;;;;;;;86.28;37.28;;;;;;;8.19;100.00;103067.91;4947046;28;20046;-70
2021/10/09 07:16:57;;;;;;;86.60;36.70;;;;;;;8.24;100.00;103067.97;4947069;28;20066;-70
2021/10/09 07:19:25;;;;;;;86.95;38.90;;;;;;;8.29;100.00;103071.59;4950186;28;20065;-70
2021/10/09 07:21:54;;;;;;;84.63;38.75;;;;;;;8.30;100.00;103069.81;4950048;28;20055;-70
2021/10/09 07:24:43;;;;;;;80.70;37.30;;;;;;;8.32;100.00;103068.94;4951338;28;20078;-69
2021/10/09 07:27:11;;;;;;;94.47;39.25;;;;;;;8.45;100.00;103067.38;4952690;28;20063;-71
2021/10/09 07:29:39;;;;;;;78.85;37.78;;;;;;;8.43;100.00;103071.81;4946483;28;20050;-70
2021/10/09 07:32:07;;;;;;;82.10;37.05;;;;;;;8.47;100.00;103078.06;4947079;28;20051;-69
2021/10/09 07:34:38;;;;;;;84.50;37.47;;;;;;;8.55;100.00;103074.59;4948387;28;20393;-69
2021/10/09 07:37:06;;;;;;;89.75;39.58;;;;;;;8.55;100.00;103079.03;4947347;28;20074;-69
2021/10/09 07:40:00;;;;;;;85.07;40.47;;;;;;;8.60;100.00;103083.53;4946683;28;20170;-69
2021/10/09 07:42:30;;;;;;;80.80;38.97;;;;;;;8.65;100.00;103080.94;4950738;28;20050;-69
2021/10/09 07:44:58;;;;;;;78.55;38.35;;;;;;;8.71;100.00;103077.44;4951291;28;20049;-69
2021/10/09 07:47:26;;;;;;;82.82;40.17;;;;;;;8.74;100.00;103085.47;4947549;28;20443;-69
2021/10/09 07:49:54;;;;;;;82.47;38.53;;;;;;;8.86;100.00;103080.28;4947492;28;20802;-68
2021/10/09 07:52:21;;;;;;;79.75;39.47;;;;;;;9.00;100.00;103080.41;4944232;28;20126;-68
2021/10/09 07:54:49;;;;;;;82.35;37.00;;;;;;;9.11;100.00;103077.88;4949066;28;20078;-68
2021/10/09 07:57:19;;;;;;;86.00;39.40;;;;;;;9.24;100.00;103077.09;4949172;28;20126;-67
2021/10/09 07:59:46;;;;;;;96.03;41.20;;;;;;;9.34;100.00;103086.94;4950279;28;20082;-67
2021/10/09 08:02:14;;;;;;;84.13;38.78;;;;;;;9.47;100.00;103071.97;4946430;28;20569;-68
2021/10/09 08:04:44;;;;;;;81.20;35.92;;;;;;;9.63;100.00;103080.09;4947182;28;20086;-69
2021/10/09 08:07:12;;;;;;;83.47;39.45;;;;;;;9.76;100.00;103087.28;4944648;28;20057;-69
2021/10/09 08:09:40;;;;;;;78.43;39.03;;;;;;;9.91;100.00;103081.19;4947585;28;20063;-68
2021/10/09 08:12:08;;;;;;;84.55;38.97;;;;;;;10.03;100.00;103077.69;4952690;28;20051;-68
2021/10/09 08:15:02;;;;;;;77.70;38.20;;;;;;;10.21;100.00;103083.09;4947255;28;20053;-70
2021/10/09 08:17:30;;;;;;;80.55;37.97;;;;;;;10.33;100.00;103089.44;4953400;28;20174;-68
2021/10/09 08:19:58;;;;;;;67.90;35.53;;;;;;;10.35;100.00;103083.25;4945824;28;20133;-71
2021/10/09 08:22:29;;;;;;;73.40;35.53;;;;;;;10.49;100.00;103085.03;4945851;28;20054;-70
2021/10/09 08:25:08;;;;;;;76.72;35.95;;;;;;;10.66;100.00;103083.34;4946474;28;20154;-70
2021/10/09 08:36:28;;;;;;;68.40;34.05;;;;;;;11.16;100.00;103090.56;4946430;28;20059;-67
2021/10/09 08:38:56;;;;;;;66.90;33.83;;;;;;;11.35;100.00;103086.13;4948862;28;20100;-68
2021/10/09 08:41:44;;;;;;;66.50;33.15;;;;;;;11.48;100.00;103086.16;4950643;28;20070;-68
2021/10/09 08:44:12;;;;;;;64.55;33.60;;;;;;;11.52;100.00;103078.09;4944841;28;20055;-68
2021/10/09 08:46:42;;;;;;;67.63;32.83;;;;;;;11.60;100.00;103080.78;4949602;28;20081;-68
2021/10/09 08:49:10;;;;;;;60.92;31.70;;;;;;;11.65;100.00;103084.34;4949715;28;20078;-68
2021/10/09 08:51:39;;;;;;;65.45;32.42;;;;;;;11.74;100.00;103083.44;4947219;28;20055;-68
2021/10/09 08:54:08;;;;;;;58.15;31.13;;;;;;;11.87;100.00;103089.69;4942182;28;20046;-68
2021/10/09 08:56:39;;;;;;;59.80;33.53;;;;;;;12.04;99.54;103082.53;4949743;28;20054;-68
2021/10/09 08:59:14;;;;;;;63.92;32.67;;;;;;;12.14;99.63;103081.63;4955005;28;20136;-68
2021/10/09 09:04:43;;;;;;;63.13;31.55;;;;;;;12.39;98.81;103083.31;4950440;28;20054;-68
2021/10/09 09:27:08;;;;;;;60.78;31.00;;;;;;;13.35;93.45;103079.19;4926368;28;20444;-72
2021/10/09 09:35:27;;;;;;;57.60;29.38;;;;;;;13.56;90.19;103082.59;4945815;28;20074;-68
2021/10/09 09:40:44;;;;;;;60.60;31.20;;;;;;;13.72;89.56;103075.28;4951845;28;20046;-73
2021/10/09 09:43:14;;;;;;;60.45;30.08;;;;;;;13.79;88.61;103067.19;4941079;28;20046;-71
2021/10/09 09:45:42;;;;;;;52.75;30.27;;;;;;;13.85;87.77;103068.00;4948836;28;20141;-72
2021/10/09 09:48:10;;;;;;;59.30;29.80;;;;;;;13.73;86.73;103067.22;4947187;28;20051;-73
2021/10/09 09:51:02;;;;;;;54.42;30.20;;;;;;;14.01;86.95;103072.28;4944357;28;20058;-72
2021/10/09 09:53:30;;;;;;;52.15;29.55;;;;;;;14.01;85.49;103061.56;4943009;28;20047;-72
2021/10/09 09:55:58;;;;;;;51.88;30.25;;;;;;;14.23;86.07;103064.00;4945322;28;20137;-72
2021/10/09 09:58:35;;;;;;;59.05;31.67;;;;;;;14.38;86.15;103066.50;4948928;28;20069;-73
2021/10/09 10:01:04;;;;;;;56.33;30.90;;;;;;;14.42;85.53;103070.03;4949576;28;20129;-73
2021/10/09 10:03:34;;;;;;;58.58;31.92;;;;;;;14.39;83.03;103068.28;4948874;28;20434;-71
2021/10/09 10:06:04;;;;;;;54.83;29.10;;;;;;;14.59;84.20;103061.78;4948838;28;20146;-72
2021/10/09 10:08:33;;;;;;;54.60;27.65;;;;;;;14.47;84.12;103063.72;4944207;28;20435;-73
2021/10/09 10:11:06;;;;;;;54.22;27.92;;;;;;;14.49;83.16;103067.25;4947812;28;20062;-74
2021/10/09 10:13:36;;;;;;;49.67;27.40;;;;;;;14.80;83.97;103061.50;4948247;28;20058;-72
2021/10/09 10:16:06;;;;;;;53.65;29.10;;;;;;;14.89;82.91;103063.16;4951747;28;20134;-73
2021/10/09 10:18:53;;;;;;;54.05;29.48;;;;;;;14.96;82.45;103061.25;4950909;28;20061;-72
2021/10/09 10:21:51;;;;;;;56.13;29.95;;;;;;;14.90;81.94;103071.19;4951978;28;20173;-74
2021/10/09 10:24:45;;;;;;;55.40;29.85;;;;;;;15.20;82.84;103058.16;4944919;28;20511;-72
2021/10/09 10:27:36;;;;;;;51.53;29.50;;;;;;;15.20;81.99;103059.97;4951161;28;20350;-68
2021/10/09 10:30:25;;;;;;;52.72;28.52;;;;;;;15.28;82.18;103060.75;4946886;28;20126;-68
2021/10/09 10:33:42;;;;;;;50.22;29.33;;;;;;;15.39;80.53;103060.56;4954135;28;20090;-68
2021/10/09 10:36:34;;;;;;;54.00;30.45;;;;;;;15.47;80.04;103056.81;4946814;28;20066;-70
2021/10/09 10:39:05;;;;;;;48.33;26.60;;;;;;;15.38;80.04;103059.66;4955624;28;20051;-69
2021/10/09 10:41:54;;;;;;;58.25;29.95;;;;;;;15.36;79.89;103063.28;4950613;28;20054;-69
2021/10/09 10:44:48;;;;;;;55.35;28.25;;;;;;;15.58;80.57;103059.34;4951787;28;20048;-69
2021/10/09 10:47:43;;;;;;;54.38;28.25;;;;;;;15.67;78.44;103053.75;4950925;28;21419;-70
2021/10/09 10:57:22;;;;;;;53.10;28.17;;;;;;;15.78;77.93;103056.31;4952365;28;20137;-71
2021/10/09 11:00:00;;;;;;;53.53;29.52;;;;;;;15.44;77.05;103056.88;4946840;28;20727;-70
2021/10/09 11:02:30;;;;;;;54.22;29.23;;;;;;;15.83;78.06;103054.44;4953552;28;20053;-70
2021/10/09 11:05:02;;;;;;;47.83;27.58;;;;;;;15.65;76.64;103060.13;4952674;28;20055;-69
2021/10/09 11:07:31;;;;;;;56.38;29.33;;;;;;;15.85;76.55;103048.97;4945966;28;20054;-69
2021/10/09 11:10:07;;;;;;;67.82;31.33;;;;;;;15.94;76.59;103048.81;4950493;28;20824;-69
2021/10/09 11:12:37;;;;;;;52.45;29.52;;;;;;;16.01;77.26;103057.66;4949789;28;20494;-70
2021/10/09 11:15:14;;;;;;;54.30;29.55;;;;;;;15.54;76.33;103056.72;4953268;28;20136;-69
2021/10/09 11:17:44;;;;;;;53.55;30.98;;;;;;;15.60;76.44;103062.88;4946996;28;20050;-69
2021/10/09 11:20:14;;;;;;;50.80;28.75;;;;;;;15.70;77.63;103055.53;4950167;28;20519;-72
2021/10/09 11:22:45;;;;;;;61.97;30.92;;;;;;;15.88;75.69;103057.00;4950273;28;20471;-73
2021/10/09 11:25:32;;;;;;;55.17;29.33;;;;;;;15.93;76.94;103055.09;4947496;28;20338;-71
2021/10/09 11:28:02;;;;;;;57.35;30.15;;;;;;;15.90;74.44;103048.91;4950909;28;20177;-73
2021/10/09 11:30:31;;;;;;;50.53;28.23;;;;;;;16.00;74.67;103051.38;4950009;28;20063;-73
2021/10/09 11:33:01;;;;;;;54.80;30.63;;;;;;;16.00;75.38;103050.50;4949589;28;20074;-70
2021/10/09 11:35:32;;;;;;;55.22;29.92;;;;;;;15.76;75.98;103039.28;4951919;28;20137;-71
2021/10/09 11:38:03;;;;;;;53.10;28.42;;;;;;;15.87;76.22;103039.97;4948168;28;20051;-70
2021/10/09 11:40:39;;;;;;;51.55;28.38;;;;;;;16.14;76.63;103044.81;4949133;28;20077;-70
2021/10/09 11:43:17;;;;;;;52.15;28.88;;;;;;;15.91;74.30;103040.78;4946800;28;20134;-70
2021/10/09 11:45:59;;;;;;;54.58;29.13;;;;;;;16.06;74.80;103045.00;4950669;28;20086;-71
2021/10/09 11:54:21;;;;;;;51.75;28.83;;;;;;;16.12;73.44;103033.19;4946250;28;20078;-73
2021/10/09 11:56:51;;;;;;;51.65;28.27;;;;;;;16.62;72.68;103034.81;4951182;28;20065;-70
2021/10/09 11:59:34;;;;;;;49.72;28.45;;;;;;;16.61;72.82;103040.22;4944439;28;20055;-70
2021/10/09 12:02:02;;;;;;;52.83;28.30;;;;;;;16.32;71.35;103036.38;4952736;28;20463;-69
2021/10/09 12:04:31;;;;;;;48.15;26.45;;;;;;;16.64;71.98;103034.78;4944640;28;20043;-68
2021/10/09 12:07:05;;;;;;;51.67;28.25;;;;;;;16.60;71.59;103039.34;4949125;28;20059;-70
2021/10/09 12:10:00;;;;;;;50.08;29.80;;;;;;;16.31;72.16;103033.69;4947207;28;20061;-70
2021/10/09 12:12:33;;;;;;;50.47;27.60;;;;;;;16.51;72.74;103034.16;4946434;28;20053;-71
2021/10/09 12:15:02;;;;;;;55.40;29.98;;;;;;;16.52;71.81;103032.38;4946947;28;20051;-70
2021/10/09 12:17:38;;;;;;;50.92;28.25;;;;;;;16.85;71.75;103028.00;4947191;28;20137;-70
2021/10/09 12:20:09;;;;;;;47.08;26.90;;;;;;;16.77;70.88;103035.34;4951173;28;20130;-70
2021/10/09 12:22:42;;;;;;;52.00;29.27;;;;;;;16.83;71.43;103026.25;4947191;28;20061;-70
2021/10/09 12:25:20;;;;;;;51.05;27.63;;;;;;;16.98;70.53;103021.41;4950879;28;20078;-74
2021/10/09 12:27:56;;;;;;;52.45;27.95;;;;;;;16.93;71.08;103025.16;4947466;28;20257;-73
2021/10/09 12:30:35;;;;;;;50.75;26.20;;;;;;;16.75;70.55;103013.84;4944675;28;20054;-72
2021/10/09 12:33:03;;;;;;;54.65;28.35;;;;;;;17.01;70.64;103023.16;4945159;28;20190;-73
2021/10/09 12:35:33;;;;;;;49.78;28.95;;;;;;;16.96;71.28;103017.00;4946402;28;20451;-73
2021/10/09 12:38:04;;;;;;;49.85;25.95;;;;;;;17.33;69.52;103006.16;4949380;28;20054;-73
2021/10/09 12:40:38;;;;;;;51.03;28.67;;;;;;;17.22;69.49;103004.66;4950767;28;20054;-73
2021/10/09 12:43:10;;;;;;;53.05;28.40;;;;;;;17.27;68.89;103008.13;4947532;28;20071;-73
2021/10/09 12:45:39;;;;;;;48.95;28.50;;;;;;;17.32;70.00;102998.09;4950201;28;20043;-74
2021/10/09 12:48:07;;;;;;;47.85;26.80;;;;;;;17.43;69.25;103004.06;4948629;28;20050;-73
2021/10/09 12:50:38;;;;;;;50.58;28.17;;;;;;;17.23;69.57;103001.94;4951956;28;20297;-73
2021/10/09 12:53:07;;;;;;;54.17;26.55;;;;;;;17.33;68.24;103008.84;4940169;28;20199;-73
2021/10/09 12:55:36;;;;;;;48.30;28.67;;;;;;;17.24;68.40;103002.81;4950526;28;20097;-73
2021/10/09 12:58:07;;;;;;;48.17;25.73;;;;;;;17.32;69.44;102998.09;4949317;28;20358;-73
2021/10/09 13:00:59;;;;;;;51.75;27.65;;;;;;;17.22;69.50;102993.88;4944581;28;20053;-73
2021/10/09 13:03:28;;;;;;;48.42;26.65;;;;;;;17.07;68.63;102995.13;4946820;28;20046;-73
2021/10/09 13:05:56;;;;;;;47.10;25.75;;;;;;;17.27;69.21;102991.94;4946197;28;20075;-73
2021/10/09 13:08:23;;;;;;;50.13;27.02;;;;;;;17.22;68.42;102983.06;4953334;28;20094;-74
2021/10/09 13:10:54;;;;;;;48.83;25.85;;;;;;;17.12;67.52;102985.13;4946431;28;20054;-73
2021/10/09 13:13:26;;;;;;;46.83;26.42;;;;;;;17.31;68.09;102983.69;4950399;28;20057;-70
2021/10/09 13:15:54;;;;;;;49.63;25.88;;;;;;;17.15;68.27;102982.34;4949564;28;20568;-75
2021/10/09 13:18:23;;;;;;;50.70;26.95;;;;;;;17.39;69.36;102980.81;4945126;28;20505;-74
2021/10/09 13:20:51;;;;;;;45.63;25.58;;;;;;;17.44;67.81;102983.41;4950866;28;20459;-74
2021/10/09 13:23:19;;;;;;;49.70;26.48;;;;;;;17.39;67.66;102980.81;4944340;28;20050;-73
2021/10/09 13:25:47;;;;;;;52.75;28.67;;;;;;;17.29;68.36;102976.59;4950340;28;20113;-74
2021/10/09 13:28:15;;;;;;;48.72;27.08;;;;;;;17.42;68.61;102978.03;4949737;28;20069;-74